sensor_id;sensor_type;location;lat;lon;timestamp;P1;durP1;ratioP1;P2;durP2;ratioP2
50165;SDS011;36071;48.140;11.516;2023-02-08T00:03:28;22.4;;;9.3;;
50165;SDS011;36071;48.140;11.516;2023-02-08T00:08:28;22.7;;;9.7;;
50165;SDS011;36071;48.140;11.516;2023-02-08T00:13:28;25.7;;;10.7;;
50165;SDS011;36071;48.140;11.516;2023-02-08T00:18:28;24.3;;;10.9;;
50165;SDS011;36071;48.140;11.516;2023-02-08T00:23:28;21.7;;;10.2;;
50165;SDS011;36071;48.140;11.516;2023-02-08T00:28:28;22.3;;;10.4;;
50165;SDS011;36071;48.140;11.516;2023-02-08T00:33:28;22.2;;;10.7;;
50165;SDS011;36071;48.140;11.516;2023-02-08T00:38:30;21.4;;;10.3;;
50165;SDS011;36071;48.140;11.516;2023-02-08T00:43:28;22.4;;;11.1;;
50165;SDS011;36071;48.140;11.516;2023-02-08T00:48:28;23.7;;;11.0;;
50165;SDS011;36071;48.140;11.516;2023-02-08T00:53:28;22.9;;;10.8;;
50165;SDS011;36071;48.140;11.516;2023-02-08T00:58:28;26.8;;;10.4;;
50165;SDS011;36071;48.140;11.516;2023-02-08T01:03:28;24.2;;;11.0;;
50165;SDS011;36071;48.140;11.516;2023-02-08T01:08:28;24.4;;;11.0;;
50165;SDS011;36071;48.140;11.516;2023-02-08T01:13:28;22.8;;;11.2;;
50165;SDS011;36071;48.140;11.516;2023-02-08T01:18:28;23.7;;;11.2;;
50165;SDS011;36071;48.140;11.516;2023-02-08T01:23:28;25.9;;;10.6;;
50165;SDS011;36071;48.140;11.516;2023-02-08T01:28:28;22.7;;;10.3;;
50165;SDS011;36071;48.140;11.516;2023-02-08T01:33:28;26.0;;;11.7;;
50165;SDS011;36071;48.140;11.516;2023-02-08T01:38:28;23.6;;;11.2;;
50165;SDS011;36071;48.140;11.516;2023-02-08T01:43:29;25.0;;;11.7;;
50165;SDS011;36071;48.140;11.516;2023-02-08T01:48:28;26.8;;;11.7;;
50165;SDS011;36071;48.140;11.516;2023-02-08T01:53:28;27.9;;;11.5;;
50165;SDS011;36071;48.140;11.516;2023-02-08T01:58:28;25.2;;;11.5;;
50165;SDS011;36071;48.140;11.516;2023-02-08T02:03:28;26.1;;;11.9;;
50165;SDS011;36071;48.140;11.516;2023-02-08T02:08:28;26.5;;;11.3;;
50165;SDS011;36071;48.140;11.516;2023-02-08T02:13:28;28.2;;;13.1;;
50165;SDS011;36071;48.140;11.516;2023-02-08T02:18:28;26.9;;;11.7;;
50165;SDS011;36071;48.140;11.516;2023-02-08T02:23:31;26.4;;;12.2;;
50165;SDS011;36071;48.140;11.516;2023-02-08T02:28:34;27.7;;;12.3;;
50165;SDS011;36071;48.140;11.516;2023-02-08T02:33:31;25.4;;;12.1;;
50165;SDS011;36071;48.140;11.516;2023-02-08T02:38:30;24.1;;;11.1;;
50165;SDS011;36071;48.140;11.516;2023-02-08T02:43:30;26.6;;;12.3;;
50165;SDS011;36071;48.140;11.516;2023-02-08T02:48:29;26.2;;;11.9;;
50165;SDS011;36071;48.140;11.516;2023-02-08T02:53:28;24.3;;;11.8;;
50165;SDS011;36071;48.140;11.516;2023-02-08T02:58:28;27.2;;;12.0;;
50165;SDS011;36071;48.140;11.516;2023-02-08T03:03:29;26.9;;;11.2;;
50165;SDS011;36071;48.140;11.516;2023-02-08T03:08:34;24.4;;;12.0;;
50165;SDS011;36071;48.140;11.516;2023-02-08T03:13:31;25.3;;;12.4;;
50165;SDS011;36071;48.140;11.516;2023-02-08T03:18:29;26.6;;;12.1;;
50165;SDS011;36071;48.140;11.516;2023-02-08T03:23:28;30.8;;;12.4;;
50165;SDS011;36071;48.140;11.516;2023-02-08T03:28:30;27.0;;;12.5;;
50165;SDS011;36071;48.140;11.516;2023-02-08T03:33:29;28.4;;;12.6;;
50165;SDS011;36071;48.140;11.516;2023-02-08T03:38:28;26.0;;;12.1;;
50165;SDS011;36071;48.140;11.516;2023-02-08T03:43:28;23.5;;;11.9;;
50165;SDS011;36071;48.140;11.516;2023-02-08T03:48:28;29.5;;;13.2;;
50165;SDS011;36071;48.140;11.516;2023-02-08T03:53:28;29.8;;;12.8;;
50165;SDS011;36071;48.140;11.516;2023-02-08T03:58:30;30.6;;;13.2;;
50165;SDS011;36071;48.140;11.516;2023-02-08T04:03:27;26.5;;;12.9;;
50165;SDS011;36071;48.140;11.516;2023-02-08T04:08:28;26.5;;;12.2;;
50165;SDS011;36071;48.140;11.516;2023-02-08T04:13:28;30.0;;;12.9;;
50165;SDS011;36071;48.140;11.516;2023-02-08T04:18:28;32.8;;;13.2;;
50165;SDS011;36071;48.140;11.516;2023-02-08T04:23:28;31.4;;;13.0;;
50165;SDS011;36071;48.140;11.516;2023-02-08T04:28:28;29.4;;;13.1;;
50165;SDS011;36071;48.140;11.516;2023-02-08T04:33:28;31.7;;;13.7;;
50165;SDS011;36071;48.140;11.516;2023-02-08T04:38:28;31.2;;;13.5;;
50165;SDS011;36071;48.140;11.516;2023-02-08T04:43:27;29.1;;;13.7;;
50165;SDS011;36071;48.140;11.516;2023-02-08T04:48:28;30.8;;;12.5;;
50165;SDS011;36071;48.140;11.516;2023-02-08T04:53:27;28.1;;;13.0;;
50165;SDS011;36071;48.140;11.516;2023-02-08T04:58:28;29.3;;;13.3;;
50165;SDS011;36071;48.140;11.516;2023-02-08T05:03:27;33.1;;;13.2;;
50165;SDS011;36071;48.140;11.516;2023-02-08T05:08:28;32.3;;;13.7;;
50165;SDS011;36071;48.140;11.516;2023-02-08T05:13:27;35.2;;;13.9;;
50165;SDS011;36071;48.140;11.516;2023-02-08T05:18:27;31.1;;;14.0;;
50165;SDS011;36071;48.140;11.516;2023-02-08T05:23:28;31.2;;;13.5;;
50165;SDS011;36071;48.140;11.516;2023-02-08T05:28:28;32.1;;;13.9;;
50165;SDS011;36071;48.140;11.516;2023-02-08T05:33:28;35.1;;;14.2;;
50165;SDS011;36071;48.140;11.516;2023-02-08T05:38:27;33.7;;;14.6;;
50165;SDS011;36071;48.140;11.516;2023-02-08T05:43:28;32.3;;;13.8;;
50165;SDS011;36071;48.140;11.516;2023-02-08T05:48:28;29.0;;;13.7;;
50165;SDS011;36071;48.140;11.516;2023-02-08T05:53:28;29.2;;;13.2;;
50165;SDS011;36071;48.140;11.516;2023-02-08T05:58:28;30.4;;;13.7;;
50165;SDS011;36071;48.140;11.516;2023-02-08T06:03:28;31.3;;;13.7;;
50165;SDS011;36071;48.140;11.516;2023-02-08T06:08:28;32.4;;;14.6;;
50165;SDS011;36071;48.140;11.516;2023-02-08T06:13:28;35.9;;;14.6;;
50165;SDS011;36071;48.140;11.516;2023-02-08T06:18:28;36.7;;;14.9;;
50165;SDS011;36071;48.140;11.516;2023-02-08T06:23:28;37.6;;;14.8;;
50165;SDS011;36071;48.140;11.516;2023-02-08T06:28:28;35.6;;;14.4;;
50165;SDS011;36071;48.140;11.516;2023-02-08T06:33:28;33.1;;;14.3;;
50165;SDS011;36071;48.140;11.516;2023-02-08T06:38:27;35.0;;;15.6;;
50165;SDS011;36071;48.140;11.516;2023-02-08T06:43:28;37.6;;;16.8;;
50165;SDS011;36071;48.140;11.516;2023-02-08T06:48:28;40.2;;;15.3;;
50165;SDS011;36071;48.140;11.516;2023-02-08T06:53:29;36.1;;;15.1;;
50165;SDS011;36071;48.140;11.516;2023-02-08T06:58:28;38.4;;;17.1;;
50165;SDS011;36071;48.140;11.516;2023-02-08T07:03:27;41.2;;;17.3;;
50165;SDS011;36071;48.140;11.516;2023-02-08T07:08:28;38.8;;;15.7;;
50165;SDS011;36071;48.140;11.516;2023-02-08T07:13:27;35.9;;;16.3;;
50165;SDS011;36071;48.140;11.516;2023-02-08T07:18:27;33.3;;;15.5;;
50165;SDS011;36071;48.140;11.516;2023-02-08T07:23:28;36.0;;;15.5;;
50165;SDS011;36071;48.140;11.516;2023-02-08T07:28:28;37.6;;;16.5;;
50165;SDS011;36071;48.140;11.516;2023-02-08T07:33:28;33.6;;;15.4;;
50165;SDS011;36071;48.140;11.516;2023-02-08T07:38:28;33.7;;;15.3;;
50165;SDS011;36071;48.140;11.516;2023-02-08T07:43:27;34.9;;;15.6;;
50165;SDS011;36071;48.140;11.516;2023-02-08T07:48:28;37.8;;;16.4;;
50165;SDS011;36071;48.140;11.516;2023-02-08T07:53:28;35.1;;;15.3;;
50165;SDS011;36071;48.140;11.516;2023-02-08T07:58:27;38.6;;;17.3;;
50165;SDS011;36071;48.140;11.516;2023-02-08T08:03:27;33.4;;;15.1;;
50165;SDS011;36071;48.140;11.516;2023-02-08T08:08:28;32.8;;;15.1;;
50165;SDS011;36071;48.140;11.516;2023-02-08T08:13:28;34.9;;;15.7;;
50165;SDS011;36071;48.140;11.516;2023-02-08T08:23:27;38.4;;;17.2;;
50165;SDS011;36071;48.140;11.516;2023-02-08T08:28:28;30.3;;;15.6;;
50165;SDS011;36071;48.140;11.516;2023-02-08T08:33:27;32.1;;;15.2;;
50165;SDS011;36071;48.140;11.516;2023-02-08T08:38:28;34.2;;;16.5;;
50165;SDS011;36071;48.140;11.516;2023-02-08T08:43:27;34.7;;;15.5;;
50165;SDS011;36071;48.140;11.516;2023-02-08T08:48:28;32.0;;;15.4;;
50165;SDS011;36071;48.140;11.516;2023-02-08T08:53:28;31.5;;;15.1;;
50165;SDS011;36071;48.140;11.516;2023-02-08T08:58:28;39.5;;;18.5;;
50165;SDS011;36071;48.140;11.516;2023-02-08T09:03:28;42.5;;;20.9;;
50165;SDS011;36071;48.140;11.516;2023-02-08T09:08:28;63.9;;;29.5;;
50165;SDS011;36071;48.140;11.516;2023-02-08T09:13:27;43.3;;;20.1;;
50165;SDS011;36071;48.140;11.516;2023-02-08T09:18:28;43.3;;;21.2;;
50165;SDS011;36071;48.140;11.516;2023-02-08T09:23:28;32.3;;;16.2;;
50165;SDS011;36071;48.140;11.516;2023-02-08T09:28:27;27.6;;;15.2;;
50165;SDS011;36071;48.140;11.516;2023-02-08T09:33:27;29.5;;;15.1;;
50165;SDS011;36071;48.140;11.516;2023-02-08T09:38:28;31.1;;;16.4;;
50165;SDS011;36071;48.140;11.516;2023-02-08T09:43:30;27.3;;;15.2;;
50165;SDS011;36071;48.140;11.516;2023-02-08T09:48:28;26.3;;;15.0;;
50165;SDS011;36071;48.140;11.516;2023-02-08T09:53:28;29.4;;;15.6;;
50165;SDS011;36071;48.140;11.516;2023-02-08T09:58:28;27.5;;;15.9;;
50165;SDS011;36071;48.140;11.516;2023-02-08T10:03:31;26.9;;;15.4;;
50165;SDS011;36071;48.140;11.516;2023-02-08T10:08:28;27.5;;;15.4;;
50165;SDS011;36071;48.140;11.516;2023-02-08T10:13:32;26.5;;;16.4;;
50165;SDS011;36071;48.140;11.516;2023-02-08T10:18:30;28.4;;;16.0;;
50165;SDS011;36071;48.140;11.516;2023-02-08T10:23:32;28.0;;;16.1;;
50165;SDS011;36071;48.140;11.516;2023-02-08T10:28:31;28.8;;;16.2;;
50165;SDS011;36071;48.140;11.516;2023-02-08T10:33:30;28.0;;;16.4;;
50165;SDS011;36071;48.140;11.516;2023-02-08T10:38:28;27.4;;;15.6;;
50165;SDS011;36071;48.140;11.516;2023-02-08T10:43:31;29.2;;;15.9;;
50165;SDS011;36071;48.140;11.516;2023-02-08T10:48:30;26.2;;;16.3;;
50165;SDS011;36071;48.140;11.516;2023-02-08T10:53:27;27.7;;;16.3;;
50165;SDS011;36071;48.140;11.516;2023-02-08T10:58:28;25.4;;;15.9;;
50165;SDS011;36071;48.140;11.516;2023-02-08T11:03:28;27.4;;;15.6;;
50165;SDS011;36071;48.140;11.516;2023-02-08T11:08:28;23.0;;;15.9;;
50165;SDS011;36071;48.140;11.516;2023-02-08T11:13:30;25.7;;;16.2;;
50165;SDS011;36071;48.140;11.516;2023-02-08T11:18:28;26.1;;;17.5;;
50165;SDS011;36071;48.140;11.516;2023-02-08T11:23:28;33.6;;;22.2;;
50165;SDS011;36071;48.140;11.516;2023-02-08T11:28:28;50.8;;;27.0;;
50165;SDS011;36071;48.140;11.516;2023-02-08T11:33:28;42.7;;;25.3;;
50165;SDS011;36071;48.140;11.516;2023-02-08T11:38:28;29.5;;;18.3;;
50165;SDS011;36071;48.140;11.516;2023-02-08T11:43:28;28.1;;;17.0;;
50165;SDS011;36071;48.140;11.516;2023-02-08T11:48:31;28.6;;;18.1;;
50165;SDS011;36071;48.140;11.516;2023-02-08T11:53:28;26.2;;;16.9;;
50165;SDS011;36071;48.140;11.516;2023-02-08T11:58:27;28.0;;;17.9;;
50165;SDS011;36071;48.140;11.516;2023-02-08T12:03:28;27.1;;;17.7;;
50165;SDS011;36071;48.140;11.516;2023-02-08T12:08:29;29.7;;;18.8;;
50165;SDS011;36071;48.140;11.516;2023-02-08T12:13:32;26.8;;;16.8;;
50165;SDS011;36071;48.140;11.516;2023-02-08T12:18:33;26.1;;;17.9;;
50165;SDS011;36071;48.140;11.516;2023-02-08T12:23:31;30.2;;;19.3;;
50165;SDS011;36071;48.140;11.516;2023-02-08T12:28:30;29.3;;;18.0;;
50165;SDS011;36071;48.140;11.516;2023-02-08T12:33:31;30.5;;;17.9;;
50165;SDS011;36071;48.140;11.516;2023-02-08T12:38:31;33.2;;;18.4;;
50165;SDS011;36071;48.140;11.516;2023-02-08T12:43:35;28.4;;;18.1;;
50165;SDS011;36071;48.140;11.516;2023-02-08T12:48:34;29.0;;;18.2;;
50165;SDS011;36071;48.140;11.516;2023-02-08T12:53:29;29.1;;;17.8;;
50165;SDS011;36071;48.140;11.516;2023-02-08T12:58:28;29.4;;;17.8;;
50165;SDS011;36071;48.140;11.516;2023-02-08T13:03:30;28.6;;;18.1;;
50165;SDS011;36071;48.140;11.516;2023-02-08T13:08:28;29.9;;;17.9;;
50165;SDS011;36071;48.140;11.516;2023-02-08T13:13:28;31.1;;;18.7;;
50165;SDS011;36071;48.140;11.516;2023-02-08T13:18:28;28.1;;;17.3;;
50165;SDS011;36071;48.140;11.516;2023-02-08T13:23:28;30.5;;;17.9;;
50165;SDS011;36071;48.140;11.516;2023-02-08T13:28:28;28.5;;;17.6;;
50165;SDS011;36071;48.140;11.516;2023-02-08T13:33:29;28.3;;;17.0;;
50165;SDS011;36071;48.140;11.516;2023-02-08T13:38:28;28.4;;;17.6;;
50165;SDS011;36071;48.140;11.516;2023-02-08T13:43:28;29.2;;;16.9;;
50165;SDS011;36071;48.140;11.516;2023-02-08T13:48:27;26.3;;;16.8;;
50165;SDS011;36071;48.140;11.516;2023-02-08T13:58:33;23.3;;;14.9;;
50165;SDS011;36071;48.140;11.516;2023-02-08T14:03:28;25.7;;;15.2;;
50165;SDS011;36071;48.140;11.516;2023-02-08T14:08:28;23.5;;;14.3;;
50165;SDS011;36071;48.140;11.516;2023-02-08T14:13:28;22.9;;;14.9;;
50165;SDS011;36071;48.140;11.516;2023-02-08T14:18:28;26.3;;;16.4;;
50165;SDS011;36071;48.140;11.516;2023-02-08T14:23:28;30.9;;;16.7;;
50165;SDS011;36071;48.140;11.516;2023-02-08T14:28:28;28.1;;;16.2;;
50165;SDS011;36071;48.140;11.516;2023-02-08T14:33:29;28.3;;;16.3;;
50165;SDS011;36071;48.140;11.516;2023-02-08T14:38:32;30.9;;;15.1;;
50165;SDS011;36071;48.140;11.516;2023-02-08T14:43:30;27.8;;;15.1;;
50165;SDS011;36071;48.140;11.516;2023-02-08T14:48:28;22.1;;;13.8;;
50165;SDS011;36071;48.140;11.516;2023-02-08T14:53:29;24.0;;;13.9;;
50165;SDS011;36071;48.140;11.516;2023-02-08T14:58:28;23.3;;;13.4;;
50165;SDS011;36071;48.140;11.516;2023-02-08T15:03:29;24.7;;;13.1;;
50165;SDS011;36071;48.140;11.516;2023-02-08T15:08:27;24.6;;;13.6;;
50165;SDS011;36071;48.140;11.516;2023-02-08T15:13:28;22.8;;;13.0;;
50165;SDS011;36071;48.140;11.516;2023-02-08T15:18:28;22.4;;;13.3;;
50165;SDS011;36071;48.140;11.516;2023-02-08T15:23:27;28.0;;;13.0;;
50165;SDS011;36071;48.140;11.516;2023-02-08T15:28:28;24.0;;;13.0;;
50165;SDS011;36071;48.140;11.516;2023-02-08T15:33:28;26.9;;;12.9;;
50165;SDS011;36071;48.140;11.516;2023-02-08T15:38:28;23.5;;;12.6;;
50165;SDS011;36071;48.140;11.516;2023-02-08T15:43:28;25.3;;;13.4;;
50165;SDS011;36071;48.140;11.516;2023-02-08T15:48:28;27.1;;;13.9;;
50165;SDS011;36071;48.140;11.516;2023-02-08T15:53:27;23.8;;;12.9;;
50165;SDS011;36071;48.140;11.516;2023-02-08T15:58:30;28.0;;;14.0;;
50165;SDS011;36071;48.140;11.516;2023-02-08T16:03:28;27.9;;;13.9;;
50165;SDS011;36071;48.140;11.516;2023-02-08T16:08:28;25.3;;;13.4;;
50165;SDS011;36071;48.140;11.516;2023-02-08T16:13:28;23.7;;;13.2;;
50165;SDS011;36071;48.140;11.516;2023-02-08T16:18:30;25.9;;;14.5;;
50165;SDS011;36071;48.140;11.516;2023-02-08T16:23:28;22.3;;;12.6;;
50165;SDS011;36071;48.140;11.516;2023-02-08T16:28:28;27.2;;;13.9;;
50165;SDS011;36071;48.140;11.516;2023-02-08T16:33:28;27.5;;;13.3;;
50165;SDS011;36071;48.140;11.516;2023-02-08T16:38:28;24.8;;;13.6;;
50165;SDS011;36071;48.140;11.516;2023-02-08T16:43:28;24.0;;;13.1;;
50165;SDS011;36071;48.140;11.516;2023-02-08T16:48:29;25.0;;;13.1;;
50165;SDS011;36071;48.140;11.516;2023-02-08T16:53:28;25.4;;;12.5;;
50165;SDS011;36071;48.140;11.516;2023-02-08T16:58:28;25.0;;;12.4;;
50165;SDS011;36071;48.140;11.516;2023-02-08T17:03:27;25.4;;;12.6;;
50165;SDS011;36071;48.140;11.516;2023-02-08T17:08:28;25.7;;;12.9;;
50165;SDS011;36071;48.140;11.516;2023-02-08T17:13:28;24.1;;;12.7;;
50165;SDS011;36071;48.140;11.516;2023-02-08T17:18:27;25.6;;;13.3;;
50165;SDS011;36071;48.140;11.516;2023-02-08T17:23:28;24.7;;;13.1;;
50165;SDS011;36071;48.140;11.516;2023-02-08T17:28:28;26.2;;;13.1;;
50165;SDS011;36071;48.140;11.516;2023-02-08T17:33:28;23.7;;;12.6;;
50165;SDS011;36071;48.140;11.516;2023-02-08T17:38:27;26.4;;;12.5;;
50165;SDS011;36071;48.140;11.516;2023-02-08T17:43:28;22.3;;;12.6;;
50165;SDS011;36071;48.140;11.516;2023-02-08T17:48:27;25.0;;;13.5;;
50165;SDS011;36071;48.140;11.516;2023-02-08T17:53:27;28.8;;;14.1;;
50165;SDS011;36071;48.140;11.516;2023-02-08T17:58:28;27.7;;;13.4;;
50165;SDS011;36071;48.140;11.516;2023-02-08T18:03:27;28.6;;;13.0;;
50165;SDS011;36071;48.140;11.516;2023-02-08T18:08:28;28.8;;;13.7;;
50165;SDS011;36071;48.140;11.516;2023-02-08T18:13:27;28.6;;;13.4;;
50165;SDS011;36071;48.140;11.516;2023-02-08T18:18:28;27.0;;;13.3;;
50165;SDS011;36071;48.140;11.516;2023-02-08T18:23:28;29.0;;;14.0;;
50165;SDS011;36071;48.140;11.516;2023-02-08T18:28:28;31.1;;;13.3;;
50165;SDS011;36071;48.140;11.516;2023-02-08T18:33:27;25.9;;;13.3;;
50165;SDS011;36071;48.140;11.516;2023-02-08T18:38:27;27.6;;;13.8;;
50165;SDS011;36071;48.140;11.516;2023-02-08T18:43:28;30.9;;;14.0;;
50165;SDS011;36071;48.140;11.516;2023-02-08T18:48:27;27.4;;;12.8;;
50165;SDS011;36071;48.140;11.516;2023-02-08T18:53:28;31.0;;;12.5;;
50165;SDS011;36071;48.140;11.516;2023-02-08T18:58:28;27.2;;;13.2;;
50165;SDS011;36071;48.140;11.516;2023-02-08T19:03:27;37.4;;;17.8;;
50165;SDS011;36071;48.140;11.516;2023-02-08T19:08:27;28.9;;;13.3;;
50165;SDS011;36071;48.140;11.516;2023-02-08T19:13:28;28.8;;;12.9;;
50165;SDS011;36071;48.140;11.516;2023-02-08T19:18:27;30.0;;;13.7;;
50165;SDS011;36071;48.140;11.516;2023-02-08T19:23:27;29.9;;;13.2;;
50165;SDS011;36071;48.140;11.516;2023-02-08T19:28:28;26.6;;;12.2;;
50165;SDS011;36071;48.140;11.516;2023-02-08T19:33:28;25.0;;;12.2;;
50165;SDS011;36071;48.140;11.516;2023-02-08T19:38:27;24.7;;;11.7;;
50165;SDS011;36071;48.140;11.516;2023-02-08T19:43:28;22.9;;;11.8;;
50165;SDS011;36071;48.140;11.516;2023-02-08T19:48:28;29.9;;;13.8;;
50165;SDS011;36071;48.140;11.516;2023-02-08T19:53:28;27.0;;;13.0;;
50165;SDS011;36071;48.140;11.516;2023-02-08T19:58:28;27.8;;;12.5;;
50165;SDS011;36071;48.140;11.516;2023-02-08T20:03:28;23.4;;;11.3;;
50165;SDS011;36071;48.140;11.516;2023-02-08T20:08:28;24.3;;;11.8;;
50165;SDS011;36071;48.140;11.516;2023-02-08T20:13:27;21.2;;;10.7;;
50165;SDS011;36071;48.140;11.516;2023-02-08T20:18:28;22.3;;;10.7;;
50165;SDS011;36071;48.140;11.516;2023-02-08T20:23:28;23.9;;;11.1;;
50165;SDS011;36071;48.140;11.516;2023-02-08T20:28:28;22.3;;;10.5;;
50165;SDS011;36071;48.140;11.516;2023-02-08T20:33:28;21.3;;;10.3;;
50165;SDS011;36071;48.140;11.516;2023-02-08T20:38:27;20.8;;;10.5;;
50165;SDS011;36071;48.140;11.516;2023-02-08T20:43:27;24.7;;;11.5;;
50165;SDS011;36071;48.140;11.516;2023-02-08T20:48:27;27.2;;;12.8;;
50165;SDS011;36071;48.140;11.516;2023-02-08T20:53:27;30.8;;;14.5;;
50165;SDS011;36071;48.140;11.516;2023-02-08T20:58:28;38.5;;;15.7;;
50165;SDS011;36071;48.140;11.516;2023-02-08T21:03:28;23.2;;;11.2;;
50165;SDS011;36071;48.140;11.516;2023-02-08T21:08:27;29.0;;;13.7;;
50165;SDS011;36071;48.140;11.516;2023-02-08T21:13:27;26.1;;;11.7;;
50165;SDS011;36071;48.140;11.516;2023-02-08T21:18:28;20.9;;;10.3;;
50165;SDS011;36071;48.140;11.516;2023-02-08T21:23:28;24.3;;;10.9;;
50165;SDS011;36071;48.140;11.516;2023-02-08T21:28:27;18.9;;;9.5;;
50165;SDS011;36071;48.140;11.516;2023-02-08T21:33:28;20.5;;;10.2;;
50165;SDS011;36071;48.140;11.516;2023-02-08T21:38:28;19.4;;;8.7;;
50165;SDS011;36071;48.140;11.516;2023-02-08T21:43:27;17.9;;;8.8;;
50165;SDS011;36071;48.140;11.516;2023-02-08T21:48:27;17.8;;;8.6;;
50165;SDS011;36071;48.140;11.516;2023-02-08T21:53:27;17.4;;;8.7;;
50165;SDS011;36071;48.140;11.516;2023-02-08T21:58:27;16.0;;;8.3;;
50165;SDS011;36071;48.140;11.516;2023-02-08T22:03:28;16.4;;;8.5;;
50165;SDS011;36071;48.140;11.516;2023-02-08T22:08:27;19.3;;;9.2;;
50165;SDS011;36071;48.140;11.516;2023-02-08T22:13:29;19.6;;;9.6;;
50165;SDS011;36071;48.140;11.516;2023-02-08T22:18:27;19.1;;;8.2;;
50165;SDS011;36071;48.140;11.516;2023-02-08T22:23:27;17.8;;;8.1;;
50165;SDS011;36071;48.140;11.516;2023-02-08T22:28:28;17.0;;;8.0;;
50165;SDS011;36071;48.140;11.516;2023-02-08T22:33:28;16.1;;;7.7;;
50165;SDS011;36071;48.140;11.516;2023-02-08T22:38:27;16.5;;;8.0;;
50165;SDS011;36071;48.140;11.516;2023-02-08T22:43:28;16.5;;;8.2;;
50165;SDS011;36071;48.140;11.516;2023-02-08T22:48:28;21.0;;;8.9;;
50165;SDS011;36071;48.140;11.516;2023-02-08T22:53:27;16.7;;;8.0;;
50165;SDS011;36071;48.140;11.516;2023-02-08T22:58:28;15.7;;;7.8;;
50165;SDS011;36071;48.140;11.516;2023-02-08T23:03:28;17.3;;;8.3;;
50165;SDS011;36071;48.140;11.516;2023-02-08T23:08:27;16.0;;;7.8;;
50165;SDS011;36071;48.140;11.516;2023-02-08T23:13:28;23.6;;;10.1;;
50165;SDS011;36071;48.140;11.516;2023-02-08T23:18:28;49.9;;;21.0;;
50165;SDS011;36071;48.140;11.516;2023-02-08T23:23:27;26.1;;;10.2;;
50165;SDS011;36071;48.140;11.516;2023-02-08T23:28:27;36.9;;;15.7;;
50165;SDS011;36071;48.140;11.516;2023-02-08T23:33:27;56.8;;;22.1;;
50165;SDS011;36071;48.140;11.516;2023-02-08T23:38:27;26.0;;;11.6;;
50165;SDS011;36071;48.140;11.516;2023-02-08T23:43:27;22.8;;;10.8;;
50165;SDS011;36071;48.140;11.516;2023-02-08T23:48:28;24.1;;;10.2;;
50165;SDS011;36071;48.140;11.516;2023-02-08T23:53:27;20.5;;;9.8;;
50165;SDS011;36071;48.140;11.516;2023-02-08T23:58:27;23.7;;;11.3;;
